Etusivu
METAR-TAF:

METAR-TAF

Lentoasemat :

Río Cuarto, Argentiina

Leveyspiiri: 33-07S, Pituuspiiri: 064-14W, korkeus merenpinnasta: 420 m

Tämänhetkinen sää

Tämä raportti tehtiin 30 minuuttia sitten, kello 17.00 UTC
Tuuli 4 kn etelästä
Lämpötila 27°C
Kosteus 23%
Ilmanpaine 1013 hPa
Näkyvyys 10 km tai enemmän
ei pilviä alle 1500 m:ssä eikä cumulonimbus-pilviä

METAR: SAOC 051700Z 18004KT CAVOK 27/04 Q1013

Aika: 14:30 (17:30 UTC)


TAF: puuttuu

Säähavainnot ja -ennusteet yli 4000 lentoasemalta (METAR- ja TAF-raportit).

Käytössä olevat sääasemat on merkitty karttaan keltaisilla ja punaisilla pisteillä.

Aseta hiiri pisteen päälle nähdäksesi sääaseman nimen.

Klikkaa sitten nähdäksesi säähavainnot ja -ennusteet.

Kartan vaihtaminen: klikkaa mustalla rastilla varustettuja vihreitä pisteitä, niin voit zoomata sisään; viivalla varustettua vihreää pistettä, niin voit zoomata ulos tai vihreitä nuolia, niin pääset viereisille kartoille.


METAR-TAF: